Terminal Aerodrome Forecast
Issued by NWS

Home | Current Version | Previous Version | Text Only | Print | Product List | Glossary On
Versions: 1 2 3 4 5 6 7 8 9 10 11 12 13 14 15 16
278
FTUS43 KEAX 191150 CCA
TAFSTJ
TAF COR
KSTJ 191150Z 1912/2012 19007KT 4SM -SHRA VCTS OVC010CB
      WS020/22045KT
      TEMPO 1912/1914 1SM BR
     FM191400 24011KT P6SM OVC010
     FM191900 31010KT P6SM OVC025
     FM192200 33008KT P6SM VCSH BKN020
     FM200300 01007KT 5SM -SHRA OVC008
     FM200600 04006KT 5SM BR VCSH OVC008=

USA.gov is the U.S. government's official web portal to all federal, state and local government web resources and services.